sensor_id;sensor_type;location;lat;lon;timestamp;P1;durP1;ratioP1;P2;durP2;ratioP2
11048;SDS011;5577;42.706;23.160;2022-10-31T00:02:10;5.03;;;4.10;;
11048;SDS011;5577;42.706;23.160;2022-10-31T00:04:54;6.43;;;3.57;;
11048;SDS011;5577;42.706;23.160;2022-10-31T00:07:38;6.33;;;3.80;;
11048;SDS011;5577;42.706;23.160;2022-10-31T00:10:22;6.27;;;3.90;;
11048;SDS011;5577;42.706;23.160;2022-10-31T00:13:06;6.70;;;4.23;;
11048;SDS011;5577;42.706;23.160;2022-10-31T00:15:51;6.83;;;4.17;;
11048;SDS011;5577;42.706;23.160;2022-10-31T00:18:35;7.07;;;4.17;;
11048;SDS011;5577;42.706;23.160;2022-10-31T00:21:19;9.03;;;5.23;;
11048;SDS011;5577;42.706;23.160;2022-10-31T00:24:04;8.50;;;6.03;;
11048;SDS011;5577;42.706;23.160;2022-10-31T00:26:48;8.47;;;6.27;;
11048;SDS011;5577;42.706;23.160;2022-10-31T00:29:32;10.20;;;6.30;;
11048;SDS011;5577;42.706;23.160;2022-10-31T00:32:16;6.87;;;5.27;;
11048;SDS011;5577;42.706;23.160;2022-10-31T00:35:00;8.50;;;4.93;;
11048;SDS011;5577;42.706;23.160;2022-10-31T00:37:44;8.03;;;4.03;;
11048;SDS011;5577;42.706;23.160;2022-10-31T00:40:28;8.23;;;5.50;;
11048;SDS011;5577;42.706;23.160;2022-10-31T00:43:11;10.40;;;5.90;;
11048;SDS011;5577;42.706;23.160;2022-10-31T00:45:55;13.93;;;6.97;;
11048;SDS011;5577;42.706;23.160;2022-10-31T00:48:39;11.37;;;5.77;;
11048;SDS011;5577;42.706;23.160;2022-10-31T00:51:24;7.90;;;5.40;;
11048;SDS011;5577;42.706;23.160;2022-10-31T00:54:08;8.77;;;5.60;;
11048;SDS011;5577;42.706;23.160;2022-10-31T00:56:52;11.50;;;6.00;;
11048;SDS011;5577;42.706;23.160;2022-10-31T00:59:35;9.27;;;6.77;;
11048;SDS011;5577;42.706;23.160;2022-10-31T01:02:19;9.50;;;5.83;;
11048;SDS011;5577;42.706;23.160;2022-10-31T01:05:03;8.87;;;5.60;;
11048;SDS011;5577;42.706;23.160;2022-10-31T01:07:48;7.13;;;4.63;;
11048;SDS011;5577;42.706;23.160;2022-10-31T01:10:32;4.93;;;4.20;;
11048;SDS011;5577;42.706;23.160;2022-10-31T01:13:15;7.27;;;4.60;;
11048;SDS011;5577;42.706;23.160;2022-10-31T01:16:00;5.27;;;4.10;;
11048;SDS011;5577;42.706;23.160;2022-10-31T01:18:44;6.93;;;4.10;;
11048;SDS011;5577;42.706;23.160;2022-10-31T01:21:29;6.77;;;4.57;;
11048;SDS011;5577;42.706;23.160;2022-10-31T01:24:13;5.40;;;4.17;;
11048;SDS011;5577;42.706;23.160;2022-10-31T01:26:57;5.30;;;3.87;;
11048;SDS011;5577;42.706;23.160;2022-10-31T01:29:41;5.53;;;4.33;;
11048;SDS011;5577;42.706;23.160;2022-10-31T01:32:26;10.53;;;4.40;;
11048;SDS011;5577;42.706;23.160;2022-10-31T01:35:12;5.60;;;4.20;;
11048;SDS011;5577;42.706;23.160;2022-10-31T01:37:56;5.73;;;4.17;;
11048;SDS011;5577;42.706;23.160;2022-10-31T01:40:40;7.37;;;4.80;;
11048;SDS011;5577;42.706;23.160;2022-10-31T01:43:30;7.23;;;5.20;;
11048;SDS011;5577;42.706;23.160;2022-10-31T01:46:38;15.90;;;7.37;;
11048;SDS011;5577;42.706;23.160;2022-10-31T01:49:36;16.13;;;11.30;;
11048;SDS011;5577;42.706;23.160;2022-10-31T01:52:28;17.43;;;10.97;;
11048;SDS011;5577;42.706;23.160;2022-10-31T01:55:29;18.80;;;10.60;;
11048;SDS011;5577;42.706;23.160;2022-10-31T01:58:18;11.00;;;7.03;;
11048;SDS011;5577;42.706;23.160;2022-10-31T02:01:06;15.23;;;8.40;;
11048;SDS011;5577;42.706;23.160;2022-10-31T02:03:50;13.97;;;8.53;;
11048;SDS011;5577;42.706;23.160;2022-10-31T02:06:36;10.43;;;7.60;;
11048;SDS011;5577;42.706;23.160;2022-10-31T02:09:26;12.77;;;7.23;;
11048;SDS011;5577;42.706;23.160;2022-10-31T02:12:12;13.23;;;7.20;;
11048;SDS011;5577;42.706;23.160;2022-10-31T02:14:57;11.73;;;8.03;;
11048;SDS011;5577;42.706;23.160;2022-10-31T02:17:43;11.17;;;6.93;;
11048;SDS011;5577;42.706;23.160;2022-10-31T02:20:29;13.00;;;7.43;;
11048;SDS011;5577;42.706;23.160;2022-10-31T02:30:06;8.87;;;5.83;;
11048;SDS011;5577;42.706;23.160;2022-10-31T02:32:57;6.23;;;4.80;;
11048;SDS011;5577;42.706;23.160;2022-10-31T02:36:16;9.07;;;4.90;;
11048;SDS011;5577;42.706;23.160;2022-10-31T02:39:25;7.60;;;5.10;;
11048;SDS011;5577;42.706;23.160;2022-10-31T02:42:33;6.23;;;4.80;;
11048;SDS011;5577;42.706;23.160;2022-10-31T02:45:23;5.53;;;4.47;;
11048;SDS011;5577;42.706;23.160;2022-10-31T02:48:15;6.77;;;4.20;;
11048;SDS011;5577;42.706;23.160;2022-10-31T02:51:03;5.97;;;4.43;;
11048;SDS011;5577;42.706;23.160;2022-10-31T02:53:48;7.30;;;4.90;;
11048;SDS011;5577;42.706;23.160;2022-10-31T02:56:32;6.03;;;4.23;;
11048;SDS011;5577;42.706;23.160;2022-10-31T02:59:16;7.23;;;4.53;;
11048;SDS011;5577;42.706;23.160;2022-10-31T03:08:34;6.37;;;4.47;;
11048;SDS011;5577;42.706;23.160;2022-10-31T03:11:23;7.07;;;4.77;;
11048;SDS011;5577;42.706;23.160;2022-10-31T03:14:16;6.70;;;4.33;;
11048;SDS011;5577;42.706;23.160;2022-10-31T03:17:06;6.80;;;4.83;;
11048;SDS011;5577;42.706;23.160;2022-10-31T03:19:55;7.03;;;4.27;;
11048;SDS011;5577;42.706;23.160;2022-10-31T03:22:44;7.17;;;5.20;;
11048;SDS011;5577;42.706;23.160;2022-10-31T03:25:29;8.07;;;4.70;;
11048;SDS011;5577;42.706;23.160;2022-10-31T03:28:15;7.40;;;4.60;;
11048;SDS011;5577;42.706;23.160;2022-10-31T03:31:05;5.53;;;4.37;;
11048;SDS011;5577;42.706;23.160;2022-10-31T03:33:51;5.87;;;5.07;;
11048;SDS011;5577;42.706;23.160;2022-10-31T03:36:38;6.33;;;4.67;;
11048;SDS011;5577;42.706;23.160;2022-10-31T03:39:23;7.13;;;5.20;;
11048;SDS011;5577;42.706;23.160;2022-10-31T03:42:12;6.37;;;5.00;;
11048;SDS011;5577;42.706;23.160;2022-10-31T03:45:19;8.10;;;5.23;;
11048;SDS011;5577;42.706;23.160;2022-10-31T03:48:07;6.90;;;4.80;;
11048;SDS011;5577;42.706;23.160;2022-10-31T03:50:56;9.43;;;5.30;;
11048;SDS011;5577;42.706;23.160;2022-10-31T03:54:19;9.73;;;4.87;;
11048;SDS011;5577;42.706;23.160;2022-10-31T04:00:17;7.97;;;5.07;;
11048;SDS011;5577;42.706;23.160;2022-10-31T04:03:12;7.63;;;4.53;;
11048;SDS011;5577;42.706;23.160;2022-10-31T04:06:05;9.07;;;4.90;;
11048;SDS011;5577;42.706;23.160;2022-10-31T04:08:53;7.13;;;5.00;;
11048;SDS011;5577;42.706;23.160;2022-10-31T04:11:42;7.10;;;5.47;;
11048;SDS011;5577;42.706;23.160;2022-10-31T04:14:32;6.87;;;5.20;;
11048;SDS011;5577;42.706;23.160;2022-10-31T04:17:19;8.37;;;5.23;;
11048;SDS011;5577;42.706;23.160;2022-10-31T04:20:06;7.57;;;5.20;;
11048;SDS011;5577;42.706;23.160;2022-10-31T04:22:51;10.13;;;5.20;;
11048;SDS011;5577;42.706;23.160;2022-10-31T04:25:34;7.03;;;5.07;;
11048;SDS011;5577;42.706;23.160;2022-10-31T04:28:18;7.63;;;5.33;;
11048;SDS011;5577;42.706;23.160;2022-10-31T04:31:03;8.87;;;5.77;;
11048;SDS011;5577;42.706;23.160;2022-10-31T04:33:47;6.67;;;5.43;;
11048;SDS011;5577;42.706;23.160;2022-10-31T04:36:31;10.13;;;5.37;;
11048;SDS011;5577;42.706;23.160;2022-10-31T04:39:15;6.87;;;5.50;;
11048;SDS011;5577;42.706;23.160;2022-10-31T04:41:58;5.87;;;5.13;;
11048;SDS011;5577;42.706;23.160;2022-10-31T04:44:42;8.07;;;5.37;;
11048;SDS011;5577;42.706;23.160;2022-10-31T04:47:26;9.60;;;5.50;;
11048;SDS011;5577;42.706;23.160;2022-10-31T04:50:10;6.60;;;5.20;;
11048;SDS011;5577;42.706;23.160;2022-10-31T04:52:54;9.50;;;6.13;;
11048;SDS011;5577;42.706;23.160;2022-10-31T04:55:38;14.80;;;6.07;;
11048;SDS011;5577;42.706;23.160;2022-10-31T04:58:22;12.33;;;5.53;;
11048;SDS011;5577;42.706;23.160;2022-10-31T05:01:06;12.33;;;6.00;;
11048;SDS011;5577;42.706;23.160;2022-10-31T05:03:50;11.23;;;6.20;;
11048;SDS011;5577;42.706;23.160;2022-10-31T05:06:34;10.20;;;6.57;;
11048;SDS011;5577;42.706;23.160;2022-10-31T05:09:18;9.40;;;6.73;;
11048;SDS011;5577;42.706;23.160;2022-10-31T05:12:02;11.57;;;6.63;;
11048;SDS011;5577;42.706;23.160;2022-10-31T05:14:45;13.00;;;7.30;;
11048;SDS011;5577;42.706;23.160;2022-10-31T05:17:30;8.93;;;6.53;;
11048;SDS011;5577;42.706;23.160;2022-10-31T05:20:15;12.10;;;8.10;;
11048;SDS011;5577;42.706;23.160;2022-10-31T05:23:01;11.17;;;7.40;;
11048;SDS011;5577;42.706;23.160;2022-10-31T05:25:45;10.87;;;8.30;;
11048;SDS011;5577;42.706;23.160;2022-10-31T05:28:29;10.50;;;8.47;;
11048;SDS011;5577;42.706;23.160;2022-10-31T05:31:13;9.60;;;8.20;;
11048;SDS011;5577;42.706;23.160;2022-10-31T05:33:57;15.13;;;8.30;;
11048;SDS011;5577;42.706;23.160;2022-10-31T05:36:40;16.73;;;8.10;;
11048;SDS011;5577;42.706;23.160;2022-10-31T05:39:24;11.67;;;8.63;;
11048;SDS011;5577;42.706;23.160;2022-10-31T05:42:08;14.50;;;8.17;;
11048;SDS011;5577;42.706;23.160;2022-10-31T05:44:52;10.17;;;8.47;;
11048;SDS011;5577;42.706;23.160;2022-10-31T05:47:36;13.57;;;8.57;;
11048;SDS011;5577;42.706;23.160;2022-10-31T05:50:20;14.37;;;9.10;;
11048;SDS011;5577;42.706;23.160;2022-10-31T05:53:05;12.97;;;8.47;;
11048;SDS011;5577;42.706;23.160;2022-10-31T05:55:49;13.67;;;8.43;;
11048;SDS011;5577;42.706;23.160;2022-10-31T05:58:33;11.70;;;8.00;;
11048;SDS011;5577;42.706;23.160;2022-10-31T06:01:17;17.07;;;8.90;;
11048;SDS011;5577;42.706;23.160;2022-10-31T06:04:01;14.30;;;9.30;;
11048;SDS011;5577;42.706;23.160;2022-10-31T06:06:45;17.00;;;9.10;;
11048;SDS011;5577;42.706;23.160;2022-10-31T06:09:29;16.77;;;9.33;;
11048;SDS011;5577;42.706;23.160;2022-10-31T06:12:13;25.23;;;22.23;;
11048;SDS011;5577;42.706;23.160;2022-10-31T06:14:57;23.57;;;18.60;;
11048;SDS011;5577;42.706;23.160;2022-10-31T06:17:41;12.77;;;9.90;;
11048;SDS011;5577;42.706;23.160;2022-10-31T06:20:26;13.50;;;9.13;;
11048;SDS011;5577;42.706;23.160;2022-10-31T06:23:10;11.33;;;8.37;;
11048;SDS011;5577;42.706;23.160;2022-10-31T06:25:54;17.77;;;10.33;;
11048;SDS011;5577;42.706;23.160;2022-10-31T06:28:38;13.13;;;8.47;;
11048;SDS011;5577;42.706;23.160;2022-10-31T06:31:22;13.67;;;8.33;;
11048;SDS011;5577;42.706;23.160;2022-10-31T06:34:07;11.47;;;8.50;;
11048;SDS011;5577;42.706;23.160;2022-10-31T06:36:52;16.07;;;8.10;;
11048;SDS011;5577;42.706;23.160;2022-10-31T06:39:35;10.57;;;7.70;;
11048;SDS011;5577;42.706;23.160;2022-10-31T06:42:19;12.27;;;8.03;;
11048;SDS011;5577;42.706;23.160;2022-10-31T06:45:03;15.47;;;8.90;;
11048;SDS011;5577;42.706;23.160;2022-10-31T06:47:51;10.10;;;7.83;;
11048;SDS011;5577;42.706;23.160;2022-10-31T06:50:36;11.70;;;8.47;;
11048;SDS011;5577;42.706;23.160;2022-10-31T06:53:20;12.63;;;8.13;;
11048;SDS011;5577;42.706;23.160;2022-10-31T06:56:04;11.13;;;7.80;;
11048;SDS011;5577;42.706;23.160;2022-10-31T06:58:48;12.90;;;8.30;;
11048;SDS011;5577;42.706;23.160;2022-10-31T07:01:32;11.17;;;7.87;;
11048;SDS011;5577;42.706;23.160;2022-10-31T07:04:17;10.37;;;7.90;;
11048;SDS011;5577;42.706;23.160;2022-10-31T07:07:01;12.63;;;7.47;;
11048;SDS011;5577;42.706;23.160;2022-10-31T07:09:44;10.93;;;7.37;;
11048;SDS011;5577;42.706;23.160;2022-10-31T07:12:28;9.57;;;7.37;;
11048;SDS011;5577;42.706;23.160;2022-10-31T07:15:12;10.20;;;7.67;;
11048;SDS011;5577;42.706;23.160;2022-10-31T07:18:00;12.80;;;8.00;;
11048;SDS011;5577;42.706;23.160;2022-10-31T07:20:45;12.13;;;7.30;;
11048;SDS011;5577;42.706;23.160;2022-10-31T07:23:29;10.57;;;7.70;;
11048;SDS011;5577;42.706;23.160;2022-10-31T07:26:12;9.73;;;8.27;;
11048;SDS011;5577;42.706;23.160;2022-10-31T07:28:57;12.10;;;7.93;;
11048;SDS011;5577;42.706;23.160;2022-10-31T07:31:42;14.23;;;8.50;;
11048;SDS011;5577;42.706;23.160;2022-10-31T07:34:27;14.67;;;8.77;;
11048;SDS011;5577;42.706;23.160;2022-10-31T07:37:11;13.73;;;9.43;;
11048;SDS011;5577;42.706;23.160;2022-10-31T07:39:55;15.03;;;9.87;;
11048;SDS011;5577;42.706;23.160;2022-10-31T07:42:40;12.10;;;8.93;;
11048;SDS011;5577;42.706;23.160;2022-10-31T07:45:26;16.30;;;9.47;;
11048;SDS011;5577;42.706;23.160;2022-10-31T07:48:10;12.70;;;10.10;;
11048;SDS011;5577;42.706;23.160;2022-10-31T07:50:54;15.50;;;10.00;;
11048;SDS011;5577;42.706;23.160;2022-10-31T07:53:38;13.17;;;9.87;;
11048;SDS011;5577;42.706;23.160;2022-10-31T07:56:22;14.23;;;9.70;;
11048;SDS011;5577;42.706;23.160;2022-10-31T07:59:06;12.53;;;9.17;;
11048;SDS011;5577;42.706;23.160;2022-10-31T08:01:50;13.43;;;9.40;;
11048;SDS011;5577;42.706;23.160;2022-10-31T08:04:34;12.27;;;9.20;;
11048;SDS011;5577;42.706;23.160;2022-10-31T08:07:18;11.37;;;9.07;;
11048;SDS011;5577;42.706;23.160;2022-10-31T08:10:03;12.23;;;9.27;;
11048;SDS011;5577;42.706;23.160;2022-10-31T08:12:54;10.57;;;8.63;;
11048;SDS011;5577;42.706;23.160;2022-10-31T08:15:40;11.03;;;9.17;;
11048;SDS011;5577;42.706;23.160;2022-10-31T08:18:25;13.03;;;9.87;;
11048;SDS011;5577;42.706;23.160;2022-10-31T08:21:09;12.60;;;9.43;;
11048;SDS011;5577;42.706;23.160;2022-10-31T08:23:54;11.57;;;10.10;;
11048;SDS011;5577;42.706;23.160;2022-10-31T08:26:37;12.30;;;9.97;;
11048;SDS011;5577;42.706;23.160;2022-10-31T08:29:21;11.60;;;9.10;;
11048;SDS011;5577;42.706;23.160;2022-10-31T08:32:05;11.73;;;8.90;;
11048;SDS011;5577;42.706;23.160;2022-10-31T08:34:49;12.23;;;9.00;;
11048;SDS011;5577;42.706;23.160;2022-10-31T08:37:33;10.90;;;9.03;;
11048;SDS011;5577;42.706;23.160;2022-10-31T08:40:17;11.70;;;9.47;;
11048;SDS011;5577;42.706;23.160;2022-10-31T08:43:02;12.90;;;9.23;;
11048;SDS011;5577;42.706;23.160;2022-10-31T08:45:53;11.00;;;8.17;;
11048;SDS011;5577;42.706;23.160;2022-10-31T08:48:38;12.43;;;8.03;;
11048;SDS011;5577;42.706;23.160;2022-10-31T08:51:22;10.73;;;7.97;;
11048;SDS011;5577;42.706;23.160;2022-10-31T08:54:06;8.07;;;7.27;;
11048;SDS011;5577;42.706;23.160;2022-10-31T08:56:54;9.97;;;7.53;;
11048;SDS011;5577;42.706;23.160;2022-10-31T08:59:39;7.93;;;7.13;;
11048;SDS011;5577;42.706;23.160;2022-10-31T09:02:24;8.00;;;7.30;;
11048;SDS011;5577;42.706;23.160;2022-10-31T09:05:08;11.47;;;7.90;;
11048;SDS011;5577;42.706;23.160;2022-10-31T09:07:55;8.30;;;7.03;;
11048;SDS011;5577;42.706;23.160;2022-10-31T09:10:43;10.93;;;7.67;;
11048;SDS011;5577;42.706;23.160;2022-10-31T09:13:28;8.07;;;7.27;;
11048;SDS011;5577;42.706;23.160;2022-10-31T09:16:12;10.03;;;7.07;;
11048;SDS011;5577;42.706;23.160;2022-10-31T09:18:56;9.90;;;7.07;;
11048;SDS011;5577;42.706;23.160;2022-10-31T09:21:40;9.77;;;7.30;;
11048;SDS011;5577;42.706;23.160;2022-10-31T09:24:24;10.50;;;7.03;;
11048;SDS011;5577;42.706;23.160;2022-10-31T09:27:08;8.97;;;7.07;;
11048;SDS011;5577;42.706;23.160;2022-10-31T09:29:52;10.57;;;6.70;;
11048;SDS011;5577;42.706;23.160;2022-10-31T09:32:36;9.83;;;6.83;;
11048;SDS011;5577;42.706;23.160;2022-10-31T09:35:20;10.40;;;7.20;;
11048;SDS011;5577;42.706;23.160;2022-10-31T09:38:05;11.53;;;7.20;;
11048;SDS011;5577;42.706;23.160;2022-10-31T09:40:56;9.87;;;6.87;;
11048;SDS011;5577;42.706;23.160;2022-10-31T09:46:57;10.97;;;6.93;;
11048;SDS011;5577;42.706;23.160;2022-10-31T09:53:00;7.33;;;6.60;;
11048;SDS011;5577;42.706;23.160;2022-10-31T09:55:45;10.20;;;7.17;;
11048;SDS011;5577;42.706;23.160;2022-10-31T09:58:31;8.23;;;6.30;;
11048;SDS011;5577;42.706;23.160;2022-10-31T10:01:28;7.63;;;6.60;;
11048;SDS011;5577;42.706;23.160;2022-10-31T10:07:40;9.93;;;6.67;;
11048;SDS011;5577;42.706;23.160;2022-10-31T10:13:13;10.97;;;6.80;;
11048;SDS011;5577;42.706;23.160;2022-10-31T10:25:46;7.63;;;6.10;;
11048;SDS011;5577;42.706;23.160;2022-10-31T10:28:29;7.00;;;6.10;;
11048;SDS011;5577;42.706;23.160;2022-10-31T10:31:23;7.60;;;5.60;;
11048;SDS011;5577;42.706;23.160;2022-10-31T10:34:17;9.93;;;6.03;;
11048;SDS011;5577;42.706;23.160;2022-10-31T10:37:17;8.10;;;6.03;;
11048;SDS011;5577;42.706;23.160;2022-10-31T10:40:25;9.53;;;5.83;;
11048;SDS011;5577;42.706;23.160;2022-10-31T10:58:24;7.17;;;4.60;;
11048;SDS011;5577;42.706;23.160;2022-10-31T11:01:10;7.10;;;3.90;;
11048;SDS011;5577;42.706;23.160;2022-10-31T11:03:56;7.30;;;3.87;;
11048;SDS011;5577;42.706;23.160;2022-10-31T11:06:40;5.53;;;4.17;;
11048;SDS011;5577;42.706;23.160;2022-10-31T11:09:24;6.87;;;3.50;;
11048;SDS011;5577;42.706;23.160;2022-10-31T11:12:09;4.40;;;3.30;;
11048;SDS011;5577;42.706;23.160;2022-10-31T11:14:55;8.17;;;3.80;;
11048;SDS011;5577;42.706;23.160;2022-10-31T11:17:48;5.83;;;3.80;;
11048;SDS011;5577;42.706;23.160;2022-10-31T11:20:35;7.90;;;4.10;;
11048;SDS011;5577;42.706;23.160;2022-10-31T11:23:20;6.17;;;4.30;;
11048;SDS011;5577;42.706;23.160;2022-10-31T11:26:14;5.20;;;3.90;;
11048;SDS011;5577;42.706;23.160;2022-10-31T11:29:03;6.67;;;4.40;;
11048;SDS011;5577;42.706;23.160;2022-10-31T11:31:50;9.03;;;4.80;;
11048;SDS011;5577;42.706;23.160;2022-10-31T11:34:42;6.30;;;4.27;;
11048;SDS011;5577;42.706;23.160;2022-10-31T11:37:31;8.63;;;4.30;;
11048;SDS011;5577;42.706;23.160;2022-10-31T11:40:25;5.33;;;3.97;;
11048;SDS011;5577;42.706;23.160;2022-10-31T11:43:13;6.60;;;4.80;;
11048;SDS011;5577;42.706;23.160;2022-10-31T11:46:08;8.93;;;4.83;;
11048;SDS011;5577;42.706;23.160;2022-10-31T11:48:59;7.63;;;4.77;;
11048;SDS011;5577;42.706;23.160;2022-10-31T11:51:46;8.80;;;4.73;;
11048;SDS011;5577;42.706;23.160;2022-10-31T11:54:34;7.00;;;4.43;;
11048;SDS011;5577;42.706;23.160;2022-10-31T12:00:29;7.97;;;4.47;;
11048;SDS011;5577;42.706;23.160;2022-10-31T12:06:38;7.00;;;4.97;;
11048;SDS011;5577;42.706;23.160;2022-10-31T12:09:26;5.60;;;4.43;;
11048;SDS011;5577;42.706;23.160;2022-10-31T12:34:02;8.13;;;3.60;;
11048;SDS011;5577;42.706;23.160;2022-10-31T12:46:19;8.63;;;3.83;;
11048;SDS011;5577;42.706;23.160;2022-10-31T12:49:18;6.37;;;4.13;;
11048;SDS011;5577;42.706;23.160;2022-10-31T12:58:26;8.03;;;4.17;;
11048;SDS011;5577;42.706;23.160;2022-10-31T13:04:14;7.20;;;4.30;;
11048;SDS011;5577;42.706;23.160;2022-10-31T13:07:03;10.13;;;4.57;;
11048;SDS011;5577;42.706;23.160;2022-10-31T13:12:43;7.17;;;4.43;;
11048;SDS011;5577;42.706;23.160;2022-10-31T13:15:32;8.60;;;4.67;;
11048;SDS011;5577;42.706;23.160;2022-10-31T13:18:32;7.60;;;4.43;;
11048;SDS011;5577;42.706;23.160;2022-10-31T13:21:26;8.43;;;4.10;;
11048;SDS011;5577;42.706;23.160;2022-10-31T13:24:16;7.60;;;4.50;;
11048;SDS011;5577;42.706;23.160;2022-10-31T13:27:13;8.70;;;4.50;;
11048;SDS011;5577;42.706;23.160;2022-10-31T13:30:11;7.10;;;4.50;;
11048;SDS011;5577;42.706;23.160;2022-10-31T13:45:58;7.50;;;4.17;;
11048;SDS011;5577;42.706;23.160;2022-10-31T13:48:42;8.17;;;4.60;;
11048;SDS011;5577;42.706;23.160;2022-10-31T13:51:27;9.43;;;4.60;;
11048;SDS011;5577;42.706;23.160;2022-10-31T13:54:21;10.23;;;4.10;;
11048;SDS011;5577;42.706;23.160;2022-10-31T13:57:14;9.47;;;3.90;;
11048;SDS011;5577;42.706;23.160;2022-10-31T14:03:02;9.17;;;3.90;;
11048;SDS011;5577;42.706;23.160;2022-10-31T14:05:51;11.10;;;5.30;;
11048;SDS011;5577;42.706;23.160;2022-10-31T14:08:39;8.10;;;5.00;;
11048;SDS011;5577;42.706;23.160;2022-10-31T14:11:30;14.93;;;7.70;;
11048;SDS011;5577;42.706;23.160;2022-10-31T14:14:15;12.20;;;6.60;;
11048;SDS011;5577;42.706;23.160;2022-10-31T14:17:01;22.03;;;11.43;;
11048;SDS011;5577;42.706;23.160;2022-10-31T14:19:59;15.97;;;7.30;;
11048;SDS011;5577;42.706;23.160;2022-10-31T14:23:11;17.60;;;9.30;;
11048;SDS011;5577;42.706;23.160;2022-10-31T14:32:01;7.70;;;4.37;;
11048;SDS011;5577;42.706;23.160;2022-10-31T14:34:57;11.50;;;5.77;;
11048;SDS011;5577;42.706;23.160;2022-10-31T14:41:03;5.77;;;3.70;;
11048;SDS011;5577;42.706;23.160;2022-10-31T14:53:42;9.33;;;4.13;;
11048;SDS011;5577;42.706;23.160;2022-10-31T14:56:29;9.03;;;3.93;;
11048;SDS011;5577;42.706;23.160;2022-10-31T14:59:16;9.73;;;4.03;;
11048;SDS011;5577;42.706;23.160;2022-10-31T15:02:08;17.80;;;4.87;;
11048;SDS011;5577;42.706;23.160;2022-10-31T15:04:59;12.70;;;5.70;;
11048;SDS011;5577;42.706;23.160;2022-10-31T15:07:54;13.47;;;6.63;;
11048;SDS011;5577;42.706;23.160;2022-10-31T15:10:44;15.83;;;6.17;;
11048;SDS011;5577;42.706;23.160;2022-10-31T15:13:29;11.67;;;5.03;;
11048;SDS011;5577;42.706;23.160;2022-10-31T15:16:14;9.83;;;4.37;;
11048;SDS011;5577;42.706;23.160;2022-10-31T15:19:05;8.53;;;4.63;;
11048;SDS011;5577;42.706;23.160;2022-10-31T15:21:53;12.00;;;4.50;;
11048;SDS011;5577;42.706;23.160;2022-10-31T15:24:39;11.53;;;3.90;;
11048;SDS011;5577;42.706;23.160;2022-10-31T15:27:23;11.57;;;4.30;;
11048;SDS011;5577;42.706;23.160;2022-10-31T15:30:21;10.67;;;4.20;;
11048;SDS011;5577;42.706;23.160;2022-10-31T15:33:24;8.30;;;3.87;;
11048;SDS011;5577;42.706;23.160;2022-10-31T15:36:20;10.67;;;4.10;;
11048;SDS011;5577;42.706;23.160;2022-10-31T15:39:08;15.13;;;4.57;;
11048;SDS011;5577;42.706;23.160;2022-10-31T15:41:55;10.77;;;4.90;;
11048;SDS011;5577;42.706;23.160;2022-10-31T15:44:41;10.70;;;5.07;;
11048;SDS011;5577;42.706;23.160;2022-10-31T15:47:28;17.97;;;10.97;;
11048;SDS011;5577;42.706;23.160;2022-10-31T15:50:18;16.23;;;11.20;;
11048;SDS011;5577;42.706;23.160;2022-10-31T15:53:14;18.43;;;8.77;;
11048;SDS011;5577;42.706;23.160;2022-10-31T15:56:06;8.87;;;5.60;;
11048;SDS011;5577;42.706;23.160;2022-10-31T15:58:52;13.67;;;5.37;;
11048;SDS011;5577;42.706;23.160;2022-10-31T16:01:38;12.87;;;6.23;;
11048;SDS011;5577;42.706;23.160;2022-10-31T16:04:22;15.43;;;6.00;;
11048;SDS011;5577;42.706;23.160;2022-10-31T16:07:13;12.50;;;5.57;;
11048;SDS011;5577;42.706;23.160;2022-10-31T16:10:00;12.70;;;5.30;;
11048;SDS011;5577;42.706;23.160;2022-10-31T16:12:46;13.00;;;5.77;;
11048;SDS011;5577;42.706;23.160;2022-10-31T16:15:30;13.13;;;6.50;;
11048;SDS011;5577;42.706;23.160;2022-10-31T16:18:15;12.90;;;6.47;;
11048;SDS011;5577;42.706;23.160;2022-10-31T16:20:59;17.37;;;7.23;;
11048;SDS011;5577;42.706;23.160;2022-10-31T16:23:47;15.40;;;7.30;;
11048;SDS011;5577;42.706;23.160;2022-10-31T16:26:38;19.67;;;8.40;;
11048;SDS011;5577;42.706;23.160;2022-10-31T16:29:26;23.40;;;9.87;;
11048;SDS011;5577;42.706;23.160;2022-10-31T16:32:36;29.93;;;11.57;;
11048;SDS011;5577;42.706;23.160;2022-10-31T16:35:37;32.80;;;13.77;;
11048;SDS011;5577;42.706;23.160;2022-10-31T16:38:22;20.60;;;11.57;;
11048;SDS011;5577;42.706;23.160;2022-10-31T16:41:07;14.80;;;9.07;;
11048;SDS011;5577;42.706;23.160;2022-10-31T16:43:51;21.30;;;10.03;;
11048;SDS011;5577;42.706;23.160;2022-10-31T16:46:36;21.83;;;8.70;;
11048;SDS011;5577;42.706;23.160;2022-10-31T16:49:20;15.23;;;7.73;;
11048;SDS011;5577;42.706;23.160;2022-10-31T16:52:04;15.37;;;6.00;;
11048;SDS011;5577;42.706;23.160;2022-10-31T16:54:48;11.07;;;5.50;;
11048;SDS011;5577;42.706;23.160;2022-10-31T16:57:32;19.30;;;7.50;;
11048;SDS011;5577;42.706;23.160;2022-10-31T17:00:18;18.23;;;7.53;;
11048;SDS011;5577;42.706;23.160;2022-10-31T17:03:04;13.93;;;7.07;;
11048;SDS011;5577;42.706;23.160;2022-10-31T17:05:48;16.73;;;10.90;;
11048;SDS011;5577;42.706;23.160;2022-10-31T17:08:32;17.30;;;9.93;;
11048;SDS011;5577;42.706;23.160;2022-10-31T17:11:18;20.97;;;11.00;;
11048;SDS011;5577;42.706;23.160;2022-10-31T17:14:05;24.47;;;11.97;;
11048;SDS011;5577;42.706;23.160;2022-10-31T17:16:48;15.53;;;8.97;;
11048;SDS011;5577;42.706;23.160;2022-10-31T17:19:32;17.03;;;8.33;;
11048;SDS011;5577;42.706;23.160;2022-10-31T17:22:17;26.83;;;17.00;;
11048;SDS011;5577;42.706;23.160;2022-10-31T17:25:02;22.73;;;12.27;;
11048;SDS011;5577;42.706;23.160;2022-10-31T17:27:46;16.30;;;10.20;;
11048;SDS011;5577;42.706;23.160;2022-10-31T17:30:30;18.37;;;9.70;;
11048;SDS011;5577;42.706;23.160;2022-10-31T17:33:15;15.50;;;9.07;;
11048;SDS011;5577;42.706;23.160;2022-10-31T17:36:01;14.23;;;9.07;;
11048;SDS011;5577;42.706;23.160;2022-10-31T17:38:46;16.03;;;8.63;;
11048;SDS011;5577;42.706;23.160;2022-10-31T17:41:30;17.47;;;9.63;;
11048;SDS011;5577;42.706;23.160;2022-10-31T17:44:14;14.17;;;9.40;;
11048;SDS011;5577;42.706;23.160;2022-10-31T17:46:58;18.97;;;10.10;;
11048;SDS011;5577;42.706;23.160;2022-10-31T17:49:42;16.27;;;11.30;;
11048;SDS011;5577;42.706;23.160;2022-10-31T17:52:26;26.57;;;18.77;;
11048;SDS011;5577;42.706;23.160;2022-10-31T17:55:10;22.83;;;13.93;;
11048;SDS011;5577;42.706;23.160;2022-10-31T17:57:55;15.47;;;10.80;;
11048;SDS011;5577;42.706;23.160;2022-10-31T18:00:39;16.03;;;11.40;;
11048;SDS011;5577;42.706;23.160;2022-10-31T18:03:24;12.10;;;9.23;;
11048;SDS011;5577;42.706;23.160;2022-10-31T18:06:09;15.60;;;9.57;;
11048;SDS011;5577;42.706;23.160;2022-10-31T18:08:54;14.60;;;10.87;;
11048;SDS011;5577;42.706;23.160;2022-10-31T18:11:40;14.50;;;9.43;;
11048;SDS011;5577;42.706;23.160;2022-10-31T18:14:24;17.10;;;10.97;;
11048;SDS011;5577;42.706;23.160;2022-10-31T18:17:10;17.60;;;9.83;;
11048;SDS011;5577;42.706;23.160;2022-10-31T18:19:55;16.77;;;10.53;;
11048;SDS011;5577;42.706;23.160;2022-10-31T18:22:39;16.93;;;10.40;;
11048;SDS011;5577;42.706;23.160;2022-10-31T18:25:23;44.93;;;28.63;;
11048;SDS011;5577;42.706;23.160;2022-10-31T18:28:07;48.80;;;27.97;;
11048;SDS011;5577;42.706;23.160;2022-10-31T18:30:50;24.77;;;17.10;;
11048;SDS011;5577;42.706;23.160;2022-10-31T18:33:34;18.90;;;13.70;;
11048;SDS011;5577;42.706;23.160;2022-10-31T18:36:20;16.17;;;11.47;;
11048;SDS011;5577;42.706;23.160;2022-10-31T18:39:05;15.80;;;11.00;;
11048;SDS011;5577;42.706;23.160;2022-10-31T18:41:49;15.63;;;11.43;;
11048;SDS011;5577;42.706;23.160;2022-10-31T18:44:33;15.07;;;10.83;;
11048;SDS011;5577;42.706;23.160;2022-10-31T18:47:17;13.90;;;11.33;;
11048;SDS011;5577;42.706;23.160;2022-10-31T18:50:02;18.57;;;11.97;;
11048;SDS011;5577;42.706;23.160;2022-10-31T18:52:46;29.13;;;13.07;;
11048;SDS011;5577;42.706;23.160;2022-10-31T18:55:29;47.97;;;15.63;;